Rechercher aéroport 
image banner adimage banner adimage banner ad
image banner ad

58CN - Jackson Lake

Situé à Jackson Lake, United States

ICAO - 58CN, IATA -

Données fournies par Airmate  

Information générale

Coordonnées: N39°27'44" W120°33'58"
Élévation : 6650 feet MSL.
Variation magnétique : 16° East
Voir autres Aéroports à California

Données opérationnelles

Special qualification required
Heure actuelle UTC:
Heure actuelle locale:
Météo à : KBLU - Blue Canyon - Nyack ( 24 km )
METAR: KBLU 231352Z AUTO VRB06KT 10SM CLR 16/02 A3019 RMK AO2 SLP145 T01560022 $
Voir NOTAMs / SUP AIP / TFR affectant cet aéroport [VIEW]
Fréquences de communication: [VIEW]

Pistes:

Coordonnées de l'aéroport

Adresse: Jackson Lake United States

Vue satellite de 58CN